Time;durP1;ratioP1;P1;durP2;ratioP2;P2;SDS_P1;SDS_P2;PMS_P1;PMS_P2;Temp;Humidity;BMP_temperature;BMP_pressure;BME280_temperature;BME280_humidity;BME280_pressure;Samples;Min_cycle;Max_cycle;Signal;HPM_P1;HPM_P2
2023/09/17 00:00:06;;;;;;;19.27;13.82;;;19.80;99.90;;;;;;5104721;28;20919;-69
2023/09/17 00:02:32;;;;;;;19.25;15.02;;;19.60;99.90;;;;;;5110206;28;20027;-69
2023/09/17 00:04:57;;;;;;;18.05;14.60;;;19.50;99.90;;;;;;5094605;28;20032;-68
2023/09/17 00:07:23;;;;;;;20.05;15.15;;;19.40;99.90;;;;;;5107049;28;20380;-68
2023/09/17 00:09:49;;;;;;;20.00;15.80;;;19.20;99.90;;;;;;5080864;28;20028;-67
2023/09/17 00:12:15;;;;;;;20.25;15.32;;;19.10;99.90;;;;;;5098645;28;20031;-67
2023/09/17 00:14:40;;;;;;;21.35;15.73;;;18.90;99.90;;;;;;5095919;28;20460;-67
2023/09/17 00:17:06;;;;;;;21.55;15.80;;;18.70;99.90;;;;;;5109079;28;20047;-67
2023/09/17 00:19:32;;;;;;;21.35;16.00;;;18.60;99.90;;;;;;5100176;28;20105;-68
2023/09/17 00:21:58;;;;;;;22.52;17.25;;;18.50;99.90;;;;;;5097580;28;20028;-68
2023/09/17 00:24:24;;;;;;;20.65;17.08;;;18.30;99.90;;;;;;5081238;28;20061;-68
2023/09/17 00:26:50;;;;;;;22.85;18.70;;;18.30;99.90;;;;;;5083938;28;20115;-68
2023/09/17 00:29:16;;;;;;;23.77;18.75;;;18.20;99.90;;;;;;5107439;28;20115;-68
2023/09/17 00:31:42;;;;;;;22.73;19.50;;;18.20;99.90;;;;;;5101069;28;20468;-68
2023/09/17 00:34:07;;;;;;;23.25;19.55;;;18.20;99.90;;;;;;5100509;28;20031;-67
2023/09/17 00:36:33;;;;;;;24.70;20.42;;;18.20;99.90;;;;;;5106876;28;20391;-68
2023/09/17 00:38:58;;;;;;;22.70;19.63;;;18.20;99.90;;;;;;5088695;28;20053;-69
2023/09/17 00:41:24;;;;;;;23.17;19.08;;;18.20;99.90;;;;;;5105786;28;20020;-69
2023/09/17 00:43:49;;;;;;;24.15;19.77;;;18.30;99.90;;;;;;5101639;28;20031;-69
2023/09/17 00:46:15;;;;;;;23.02;18.98;;;18.40;99.90;;;;;;5099260;28;20050;-68
2023/09/17 00:48:42;;;;;;;24.23;19.90;;;18.40;99.90;;;;;;5108400;28;20024;-69
2023/09/17 00:51:08;;;;;;;23.85;18.92;;;18.50;99.90;;;;;;5094779;28;20039;-68
2023/09/17 00:53:34;;;;;;;23.23;17.88;;;18.50;99.90;;;;;;5089401;28;20031;-68
2023/09/17 00:56:01;;;;;;;21.75;18.23;;;18.60;99.90;;;;;;5095138;28;20024;-69
2023/09/17 00:58:30;;;;;;;24.63;19.08;;;18.60;99.90;;;;;;5101560;28;20028;-67
2023/09/17 01:00:58;;;;;;;21.60;17.38;;;18.70;99.90;;;;;;5083951;28;20082;-67
2023/09/17 01:03:25;;;;;;;21.27;17.77;;;18.70;99.90;;;;;;5106318;28;20058;-68
2023/09/17 01:05:52;;;;;;;22.02;17.65;;;18.70;99.90;;;;;;5096600;28;20085;-68
2023/09/17 01:08:17;;;;;;;22.98;17.45;;;18.70;99.90;;;;;;5098881;28;20114;-69
2023/09/17 01:10:43;;;;;;;23.88;17.55;;;18.70;99.90;;;;;;5108477;28;20039;-69
2023/09/17 01:13:10;;;;;;;20.77;16.77;;;18.70;99.90;;;;;;5079380;28;20024;-69
2023/09/17 01:15:37;;;;;;;20.83;16.48;;;18.80;99.90;;;;;;5094083;28;20379;-69
2023/09/17 01:18:05;;;;;;;21.88;16.67;;;18.80;99.90;;;;;;5088689;28;20029;-68
2023/09/17 01:20:38;;;;;;;22.50;16.63;;;18.80;99.90;;;;;;5096204;28;20407;-69
2023/09/17 01:23:10;;;;;;;21.70;16.05;;;18.90;99.90;;;;;;5095709;28;20036;-68
2023/09/17 01:25:42;;;;;;;20.48;15.43;;;19.00;99.90;;;;;;5095646;28;20020;-70
2023/09/17 01:28:13;;;;;;;19.80;15.82;;;19.00;99.90;;;;;;5096248;28;20059;-69
2023/09/17 01:30:41;;;;;;;19.67;16.30;;;19.10;99.90;;;;;;5095647;28;20032;-69
2023/09/17 01:33:09;;;;;;;20.83;16.15;;;19.10;99.90;;;;;;5095751;28;20031;-69
2023/09/17 01:35:41;;;;;;;21.17;17.10;;;19.10;99.90;;;;;;5082739;28;20031;-69
2023/09/17 01:38:09;;;;;;;21.25;17.25;;;19.10;99.90;;;;;;5075715;28;20029;-69
2023/09/17 01:40:34;;;;;;;21.92;17.25;;;19.10;99.90;;;;;;5075752;28;20050;-68
2023/09/17 01:43:01;;;;;;;22.33;17.63;;;19.10;99.90;;;;;;5080444;28;20520;-69
2023/09/17 01:45:28;;;;;;;21.48;16.45;;;19.10;99.90;;;;;;5097560;28;20024;-68
2023/09/17 01:47:54;;;;;;;23.73;17.95;;;19.10;99.90;;;;;;5107419;28;20399;-68
2023/09/17 01:50:23;;;;;;;21.90;16.40;;;19.10;99.90;;;;;;5105111;28;20047;-69
2023/09/17 01:52:49;;;;;;;22.55;17.25;;;19.10;99.90;;;;;;5086876;28;20059;-69
2023/09/17 01:55:14;;;;;;;20.70;16.70;;;19.10;99.90;;;;;;5109230;28;20028;-69
2023/09/17 01:57:41;;;;;;;21.52;16.50;;;19.10;99.90;;;;;;5099518;28;20110;-69
2023/09/17 02:00:16;;;;;;;21.60;16.58;;;19.10;99.90;;;;;;5106814;28;20452;-69
2023/09/17 02:02:47;;;;;;;21.40;16.20;;;19.10;99.90;;;;;;5108322;28;20031;-68
2023/09/17 02:05:17;;;;;;;23.27;18.17;;;19.10;99.90;;;;;;5098078;28;20042;-70
2023/09/17 02:07:46;;;;;;;24.88;18.45;;;19.10;99.90;;;;;;5101070;28;20483;-69
2023/09/17 02:10:11;;;;;;;24.27;18.63;;;19.10;99.90;;;;;;5096866;28;20036;-70
2023/09/17 02:12:37;;;;;;;22.67;18.25;;;19.10;99.90;;;;;;5102139;28;20028;-68
2023/09/17 02:15:03;;;;;;;24.17;18.55;;;19.10;99.90;;;;;;5110396;28;20084;-68
2023/09/17 02:17:29;;;;;;;24.52;18.98;;;19.10;99.90;;;;;;5097482;28;20054;-69
2023/09/17 02:19:55;;;;;;;24.88;18.52;;;19.10;99.90;;;;;;5108006;28;20044;-68
2023/09/17 02:22:20;;;;;;;23.83;18.42;;;19.10;99.90;;;;;;5104787;28;20032;-68
2023/09/17 02:24:46;;;;;;;24.63;18.45;;;19.10;99.90;;;;;;5100124;28;20020;-67
2023/09/17 02:27:13;;;;;;;25.13;18.65;;;19.10;99.90;;;;;;5087941;28;20394;-68
2023/09/17 02:29:40;;;;;;;24.60;18.75;;;19.00;99.90;;;;;;5094197;28;20027;-69
2023/09/17 02:32:05;;;;;;;23.55;18.13;;;19.00;99.90;;;;;;5095378;28;20036;-69
2023/09/17 02:34:31;;;;;;;22.15;19.00;;;19.00;99.90;;;;;;5091000;28;20020;-69
2023/09/17 02:36:56;;;;;;;23.42;19.05;;;19.00;99.90;;;;;;5091001;28;20032;-69
2023/09/17 02:39:22;;;;;;;22.52;17.50;;;19.00;99.90;;;;;;5089231;28;20032;-68
2023/09/17 02:41:48;;;;;;;22.75;18.10;;;19.00;99.90;;;;;;5095681;28;20024;-69
2023/09/17 02:44:13;;;;;;;22.17;17.38;;;19.00;99.90;;;;;;5090164;28;20020;-68
2023/09/17 02:46:40;;;;;;;23.58;17.27;;;19.00;99.90;;;;;;5090660;28;20035;-68
2023/09/17 02:49:06;;;;;;;22.95;17.33;;;19.10;99.90;;;;;;5090993;28;20117;-68
2023/09/17 02:51:31;;;;;;;22.42;17.17;;;19.10;99.90;;;;;;5093757;28;20135;-68
2023/09/17 02:53:57;;;;;;;21.90;16.98;;;19.10;99.90;;;;;;5093255;28;20024;-69
2023/09/17 02:56:23;;;;;;;22.45;17.17;;;19.10;99.90;;;;;;5093525;28;20480;-68
2023/09/17 02:58:48;;;;;;;21.17;16.95;;;19.10;99.90;;;;;;5087646;28;20032;-69
2023/09/17 03:01:18;;;;;;;20.55;16.08;;;19.10;99.90;;;;;;5091708;28;20082;-69
2023/09/17 03:03:47;;;;;;;21.48;16.85;;;19.10;99.90;;;;;;5091385;28;20038;-69
2023/09/17 03:06:13;;;;;;;19.55;14.82;;;19.10;99.90;;;;;;5091887;28;20028;-69
2023/09/17 03:08:41;;;;;;;23.75;16.42;;;19.10;99.90;;;;;;5093739;28;20064;-68
2023/09/17 03:11:13;;;;;;;20.10;15.55;;;19.10;99.90;;;;;;5100112;28;20032;-68
2023/09/17 03:13:46;;;;;;;21.38;16.25;;;19.10;99.90;;;;;;5097335;28;20029;-68
2023/09/17 03:16:15;;;;;;;20.25;15.68;;;19.10;99.90;;;;;;5095639;28;20028;-69
2023/09/17 03:18:43;;;;;;;20.23;14.93;;;19.10;99.90;;;;;;5096623;28;20030;-68
2023/09/17 03:21:09;;;;;;;22.13;15.75;;;19.10;99.90;;;;;;5097918;28;20028;-68
2023/09/17 03:23:36;;;;;;;21.05;15.00;;;19.10;99.90;;;;;;5097910;28;20102;-68
2023/09/17 03:26:03;;;;;;;21.55;16.67;;;19.10;99.90;;;;;;5096100;28;20028;-69
2023/09/17 03:28:29;;;;;;;21.13;15.45;;;19.10;99.90;;;;;;5097485;28;20020;-68
2023/09/17 03:30:55;;;;;;;20.77;15.48;;;19.10;99.90;;;;;;5096293;28;20035;-69
2023/09/17 03:33:22;;;;;;;21.65;16.60;;;19.10;99.90;;;;;;5107646;28;20031;-69
2023/09/17 03:35:47;;;;;;;21.77;16.70;;;19.10;99.90;;;;;;5082764;28;20028;-69
2023/09/17 03:38:13;;;;;;;24.08;17.40;;;19.10;99.90;;;;;;5095610;28;20046;-70
2023/09/17 03:40:39;;;;;;;22.42;17.20;;;19.10;99.90;;;;;;5095248;28;20052;-68
2023/09/17 03:43:05;;;;;;;22.05;18.52;;;19.10;99.90;;;;;;5107153;28;20036;-68
2023/09/17 03:45:31;;;;;;;21.52;17.80;;;19.10;99.90;;;;;;5109197;28;20016;-68
2023/09/17 03:47:57;;;;;;;22.75;18.35;;;19.10;99.90;;;;;;5095867;28;20028;-68
2023/09/17 03:50:23;;;;;;;23.92;18.88;;;19.00;99.90;;;;;;5093881;28;20445;-68
2023/09/17 03:52:52;;;;;;;25.40;19.17;;;19.10;99.90;;;;;;5091104;28;20133;-68
2023/09/17 03:55:18;;;;;;;22.73;19.05;;;19.00;99.90;;;;;;5098481;28;20410;-69
2023/09/17 03:57:44;;;;;;;23.33;18.88;;;19.00;99.90;;;;;;5099015;28;20031;-69
2023/09/17 04:00:11;;;;;;;27.15;19.58;;;19.00;99.90;;;;;;5109493;28;20024;-69
2023/09/17 04:02:37;;;;;;;21.58;18.52;;;19.00;99.90;;;;;;5109736;28;20032;-69
2023/09/17 04:05:13;;;;;;;24.48;19.75;;;19.00;99.90;;;;;;5109217;28;20053;-69
2023/09/17 04:07:46;;;;;;;24.85;19.63;;;19.00;99.90;;;;;;5094546;28;20024;-69
2023/09/17 04:10:13;;;;;;;23.50;19.55;;;19.00;99.90;;;;;;5103252;28;20028;-69
2023/09/17 04:12:40;;;;;;;23.75;18.92;;;19.00;99.90;;;;;;5107183;28;20049;-69
2023/09/17 04:15:13;;;;;;;25.23;19.63;;;19.00;99.90;;;;;;5096567;28;20074;-69
2023/09/17 04:17:39;;;;;;;27.27;18.85;;;19.00;99.90;;;;;;5107542;28;20426;-69
2023/09/17 04:20:13;;;;;;;24.83;18.52;;;19.00;99.90;;;;;;5102231;28;20020;-69
2023/09/17 04:22:42;;;;;;;25.58;19.95;;;18.90;99.90;;;;;;5099101;28;20024;-69
2023/09/17 04:25:09;;;;;;;24.38;20.58;;;18.90;99.90;;;;;;5095244;28;20051;-68
2023/09/17 04:27:36;;;;;;;22.92;19.73;;;18.80;99.90;;;;;;5101222;28;20379;-69
2023/09/17 04:30:03;;;;;;;24.85;20.17;;;18.80;99.90;;;;;;5107381;28;20016;-69
2023/09/17 04:32:33;;;;;;;26.58;21.23;;;18.80;99.90;;;;;;5107721;28;20460;-68
2023/09/17 04:34:59;;;;;;;25.38;20.42;;;18.70;99.90;;;;;;5104460;28;20029;-68
2023/09/17 04:37:25;;;;;;;24.17;20.15;;;18.70;99.90;;;;;;5108308;28;20498;-69
2023/09/17 04:39:50;;;;;;;25.25;19.35;;;18.70;99.90;;;;;;5106289;28;20022;-69
2023/09/17 04:42:17;;;;;;;24.33;19.88;;;18.60;99.90;;;;;;5087409;28;20032;-68
2023/09/17 04:44:42;;;;;;;25.20;20.17;;;18.60;99.90;;;;;;5096506;28;20036;-69
2023/09/17 04:47:08;;;;;;;24.42;20.48;;;18.60;99.90;;;;;;5106572;28;20039;-69
2023/09/17 04:49:35;;;;;;;27.00;21.00;;;18.60;99.90;;;;;;5094088;28;20078;-69
2023/09/17 04:52:01;;;;;;;26.00;20.67;;;18.60;99.90;;;;;;5096446;28;20432;-69
2023/09/17 04:54:26;;;;;;;24.58;21.45;;;18.50;99.90;;;;;;5096849;28;20055;-67
2023/09/17 04:56:52;;;;;;;27.52;21.52;;;18.50;99.90;;;;;;5096861;28;20021;-68
2023/09/17 04:59:17;;;;;;;26.20;22.50;;;18.30;99.90;;;;;;5087777;28;20362;-67
2023/09/17 05:01:43;;;;;;;28.15;23.27;;;18.20;99.90;;;;;;5076316;28;20029;-67
2023/09/17 05:04:09;;;;;;;27.88;23.10;;;18.10;99.90;;;;;;5086001;28;20029;-68
2023/09/17 05:06:36;;;;;;;27.85;23.58;;;18.00;99.90;;;;;;5098046;28;20012;-67
2023/09/17 05:09:02;;;;;;;30.08;23.13;;;17.90;99.90;;;;;;5110732;28;20032;-66
2023/09/17 05:11:28;;;;;;;30.33;24.50;;;17.80;99.90;;;;;;5086092;28;20036;-68
2023/09/17 05:13:53;;;;;;;28.23;23.60;;;17.80;99.90;;;;;;5076186;28;20082;-66
2023/09/17 05:16:19;;;;;;;31.17;25.15;;;17.70;99.90;;;;;;5076572;28;20028;-66
2023/09/17 05:18:44;;;;;;;30.00;25.40;;;17.60;99.90;;;;;;5075528;28;20035;-66
2023/09/17 05:21:11;;;;;;;32.40;27.33;;;17.60;99.90;;;;;;5075982;28;20024;-67
2023/09/17 05:23:38;;;;;;;31.63;27.55;;;17.60;99.90;;;;;;5075906;28;20028;-67
2023/09/17 05:26:03;;;;;;;31.80;28.10;;;17.60;99.90;;;;;;5077237;28;20112;-66
2023/09/17 05:28:29;;;;;;;31.83;27.08;;;17.60;99.90;;;;;;5095595;28;20055;-66
2023/09/17 05:30:58;;;;;;;35.08;27.90;;;17.50;99.90;;;;;;5109809;28;20036;-67
2023/09/17 05:33:26;;;;;;;30.92;27.50;;;17.50;99.90;;;;;;5098096;28;20043;-67
2023/09/17 05:35:56;;;;;;;31.27;27.67;;;17.50;99.90;;;;;;5110822;28;20539;-66
2023/09/17 05:38:22;;;;;;;31.58;28.10;;;17.60;99.90;;;;;;5104827;28;20045;-66
2023/09/17 05:40:48;;;;;;;34.17;28.33;;;17.60;99.90;;;;;;5101436;28;20415;-67
2023/09/17 05:43:13;;;;;;;33.53;27.10;;;17.60;99.90;;;;;;5112082;28;20057;-68
2023/09/17 05:45:39;;;;;;;33.80;27.08;;;17.60;99.90;;;;;;5098004;28;20386;-66
2023/09/17 05:48:05;;;;;;;31.27;26.38;;;17.70;99.90;;;;;;5108764;28;20504;-67
2023/09/17 05:50:33;;;;;;;29.52;25.83;;;17.70;99.90;;;;;;5104259;28;20519;-67
2023/09/17 05:52:58;;;;;;;30.52;25.42;;;17.80;99.90;;;;;;5100845;28;20024;-68
2023/09/17 05:55:24;;;;;;;34.88;26.42;;;17.90;99.90;;;;;;5111501;28;20092;-67
2023/09/17 05:57:49;;;;;;;29.80;26.58;;;17.90;99.90;;;;;;5099519;28;20023;-67
2023/09/17 06:00:16;;;;;;;33.28;27.85;;;17.90;99.90;;;;;;5106317;28;20046;-67
2023/09/17 06:02:42;;;;;;;32.05;27.38;;;18.00;99.90;;;;;;5107002;28;20119;-68
2023/09/17 06:05:08;;;;;;;33.85;27.33;;;18.00;99.90;;;;;;5099502;28;20162;-67
2023/09/17 06:07:34;;;;;;;30.75;25.92;;;18.10;99.90;;;;;;5089572;28;20124;-67
2023/09/17 06:10:00;;;;;;;30.55;25.65;;;18.10;99.90;;;;;;5109107;28;20024;-68
2023/09/17 06:12:25;;;;;;;29.02;25.20;;;18.20;99.90;;;;;;5104516;28;20062;-67
2023/09/17 06:14:51;;;;;;;29.55;23.67;;;18.20;99.90;;;;;;5101728;28;20104;-68
2023/09/17 06:17:16;;;;;;;30.42;23.15;;;18.30;99.90;;;;;;5111314;28;20028;-67
2023/09/17 06:19:42;;;;;;;28.88;22.98;;;18.30;99.90;;;;;;5097955;28;20019;-68
2023/09/17 06:22:08;;;;;;;28.15;22.65;;;18.30;99.90;;;;;;5094244;28;20061;-68
2023/09/17 06:24:34;;;;;;;25.98;21.88;;;18.40;99.90;;;;;;5111711;28;20035;-68
2023/09/17 06:26:59;;;;;;;27.67;21.85;;;18.40;99.90;;;;;;5100258;28;20414;-67
2023/09/17 06:29:25;;;;;;;26.85;22.02;;;18.50;99.90;;;;;;5111156;28;20058;-68
2023/09/17 06:31:50;;;;;;;27.65;22.10;;;18.50;99.90;;;;;;5098602;28;20856;-67
2023/09/17 06:34:16;;;;;;;27.90;21.25;;;18.50;99.90;;;;;;5106071;28;20024;-68
2023/09/17 06:36:42;;;;;;;26.90;21.45;;;18.60;99.90;;;;;;5106591;28;20057;-68
2023/09/17 06:39:07;;;;;;;26.98;21.50;;;18.60;99.90;;;;;;5098971;28;20103;-68
2023/09/17 06:41:33;;;;;;;27.52;21.52;;;18.60;99.90;;;;;;5093366;28;20028;-67
2023/09/17 06:43:59;;;;;;;29.73;22.95;;;18.70;99.90;;;;;;5108231;28;20062;-69
2023/09/17 06:46:25;;;;;;;27.83;21.58;;;18.70;99.90;;;;;;5101661;28;20102;-69
2023/09/17 06:48:51;;;;;;;27.25;21.67;;;18.70;99.90;;;;;;5105809;28;20372;-68
2023/09/17 06:51:17;;;;;;;26.20;21.70;;;18.80;99.90;;;;;;5110289;28;20101;-68
2023/09/17 06:53:42;;;;;;;26.52;21.75;;;18.90;99.90;;;;;;5097636;28;20106;-68
2023/09/17 06:56:09;;;;;;;30.27;22.35;;;18.90;99.90;;;;;;5106755;28;20062;-67
2023/09/17 06:58:35;;;;;;;27.25;22.13;;;19.00;99.90;;;;;;5104757;28;20448;-69
2023/09/17 07:01:01;;;;;;;28.00;21.95;;;19.00;99.90;;;;;;5098858;28;20035;-69
2023/09/17 07:03:26;;;;;;;28.20;22.75;;;19.10;99.90;;;;;;5110189;28;20098;-68
2023/09/17 07:05:52;;;;;;;26.90;22.17;;;19.10;99.90;;;;;;5096739;28;20039;-68
2023/09/17 07:08:18;;;;;;;25.65;20.52;;;19.20;99.90;;;;;;5114192;28;20573;-69
2023/09/17 07:10:44;;;;;;;26.92;21.90;;;19.20;99.90;;;;;;5101761;28;20036;-67
2023/09/17 07:13:09;;;;;;;24.58;20.17;;;19.30;99.90;;;;;;5108657;28;20034;-69
2023/09/17 07:15:35;;;;;;;31.40;21.20;;;19.30;99.90;;;;;;5097346;28;20027;-68
2023/09/17 07:18:00;;;;;;;25.58;19.98;;;19.30;99.90;;;;;;5107681;28;20032;-69
2023/09/17 07:20:26;;;;;;;26.45;19.45;;;19.30;99.90;;;;;;5094757;28;20031;-68
2023/09/17 07:22:52;;;;;;;25.52;20.23;;;19.30;99.90;;;;;;5099734;28;20520;-68
2023/09/17 07:25:17;;;;;;;26.10;20.10;;;19.30;99.90;;;;;;5097960;28;20020;-68
2023/09/17 07:27:43;;;;;;;26.70;22.02;;;19.40;99.90;;;;;;5113089;28;20039;-68
2023/09/17 07:30:09;;;;;;;26.98;20.60;;;19.40;99.90;;;;;;5107964;28;20063;-69
2023/09/17 07:32:34;;;;;;;23.98;20.52;;;19.30;99.90;;;;;;5093764;28;20056;-68
2023/09/17 07:35:03;;;;;;;25.27;19.45;;;19.20;99.90;;;;;;5092484;28;20028;-68
2023/09/17 07:37:29;;;;;;;27.70;19.75;;;19.10;99.90;;;;;;5093069;28;20078;-68
2023/09/17 07:40:01;;;;;;;26.40;19.48;;;19.00;99.90;;;;;;5092967;28;20028;-68
2023/09/17 07:42:27;;;;;;;26.80;20.38;;;18.80;99.90;;;;;;5087323;28;20024;-67
2023/09/17 07:44:52;;;;;;;27.42;21.63;;;18.70;99.90;;;;;;5082848;28;20521;-68
2023/09/17 07:47:18;;;;;;;28.08;22.00;;;18.60;99.90;;;;;;5113430;28;20033;-67
2023/09/17 07:49:45;;;;;;;30.48;22.35;;;18.60;99.90;;;;;;5110548;28;20051;-67
2023/09/17 07:52:12;;;;;;;30.45;24.30;;;18.50;99.90;;;;;;5092968;28;20078;-68
2023/09/17 07:54:41;;;;;;;29.58;23.38;;;18.50;99.90;;;;;;5093131;28;20036;-67
2023/09/17 07:57:11;;;;;;;26.23;20.42;;;18.50;99.90;;;;;;5092628;28;20020;-68
2023/09/17 07:59:37;;;;;;;26.35;19.00;;;18.50;99.90;;;;;;5090899;28;20060;-68
2023/09/17 08:02:03;;;;;;;23.60;18.08;;;18.50;99.90;;;;;;5091157;28;20067;-68
2023/09/17 08:04:29;;;;;;;24.70;17.17;;;18.40;99.90;;;;;;5091132;28;20020;-68
2023/09/17 08:06:54;;;;;;;21.70;15.48;;;18.50;99.90;;;;;;5091086;28;20058;-68
2023/09/17 08:09:20;;;;;;;22.08;15.82;;;18.50;99.90;;;;;;5090891;28;20111;-69
2023/09/17 08:11:46;;;;;;;23.10;15.20;;;18.50;99.90;;;;;;5091047;28;20116;-69
2023/09/17 08:14:14;;;;;;;23.77;16.65;;;18.60;99.90;;;;;;5092803;28;20059;-67
2023/09/17 08:16:40;;;;;;;22.40;15.80;;;18.60;99.90;;;;;;5092778;28;20457;-68
2023/09/17 08:19:06;;;;;;;21.02;16.08;;;18.60;99.90;;;;;;5092712;28;20480;-68
2023/09/17 08:21:32;;;;;;;23.50;16.80;;;18.60;99.90;;;;;;5092661;28;20024;-68
2023/09/17 08:23:58;;;;;;;22.30;16.88;;;18.60;99.90;;;;;;5096692;28;20031;-68
2023/09/17 08:26:27;;;;;;;23.63;15.70;;;18.50;99.90;;;;;;5102969;28;20118;-68
2023/09/17 08:28:55;;;;;;;20.65;16.45;;;18.60;99.90;;;;;;5116423;28;20023;-68
2023/09/17 08:31:22;;;;;;;23.88;16.85;;;18.60;99.90;;;;;;5114880;28;20040;-67
2023/09/17 08:33:48;;;;;;;21.73;16.77;;;18.60;99.90;;;;;;5110908;28;20028;-67
2023/09/17 08:36:14;;;;;;;24.13;17.73;;;18.50;99.90;;;;;;5116773;28;20337;-64
2023/09/17 08:38:40;;;;;;;26.63;19.45;;;18.30;99.90;;;;;;5095028;28;20035;-64
2023/09/17 08:41:07;;;;;;;24.33;19.25;;;18.10;99.90;;;;;;5095580;28;20024;-65
2023/09/17 08:43:33;;;;;;;26.70;22.25;;;17.90;99.90;;;;;;5097042;28;20026;-65
2023/09/17 08:46:03;;;;;;;29.23;22.65;;;17.70;99.90;;;;;;5114836;28;20055;-65
2023/09/17 08:48:29;;;;;;;27.55;21.25;;;17.60;99.90;;;;;;5112980;28;20480;-65
2023/09/17 08:50:56;;;;;;;29.45;21.83;;;17.50;99.90;;;;;;5096254;28;20051;-64
2023/09/17 08:53:40;;;;;;;30.02;21.83;;;17.40;99.90;;;;;;5094333;28;20472;-66
2023/09/17 08:56:06;;;;;;;27.83;21.55;;;17.40;99.90;;;;;;5095998;28;20047;-65
2023/09/17 08:58:38;;;;;;;27.40;21.40;;;17.30;99.90;;;;;;5096246;28;20024;-66
2023/09/17 09:01:15;;;;;;;29.33;22.40;;;17.30;99.90;;;;;;5101047;28;20035;-65
2023/09/17 09:03:42;;;;;;;28.05;23.58;;;17.30;99.90;;;;;;5097503;28;20020;-66
2023/09/17 09:06:09;;;;;;;29.25;24.45;;;17.30;99.90;;;;;;5095958;28;20032;-67
2023/09/17 09:08:35;;;;;;;30.13;24.60;;;17.30;99.90;;;;;;5096027;28;20073;-66
2023/09/17 09:11:01;;;;;;;29.77;23.20;;;17.30;99.90;;;;;;5095791;28;20036;-66
2023/09/17 09:13:27;;;;;;;27.25;20.30;;;17.30;99.90;;;;;;5095526;28;20039;-67
2023/09/17 09:15:55;;;;;;;24.35;18.75;;;17.30;99.90;;;;;;5095522;28;20024;-66
2023/09/17 09:18:24;;;;;;;25.48;20.02;;;17.30;99.90;;;;;;5094041;28;20050;-66
2023/09/17 09:20:49;;;;;;;22.83;17.77;;;17.30;99.90;;;;;;5094421;28;20054;-66
2023/09/17 09:23:15;;;;;;;23.48;18.63;;;17.30;99.90;;;;;;5094361;28;20070;-66
2023/09/17 09:25:41;;;;;;;24.08;18.30;;;17.40;99.90;;;;;;5094129;28;20070;-66
2023/09/17 09:28:07;;;;;;;22.70;17.65;;;17.50;99.90;;;;;;5094062;28;20020;-66
2023/09/17 09:30:33;;;;;;;24.95;19.25;;;17.60;99.90;;;;;;5112869;28;20142;-66
2023/09/17 09:32:59;;;;;;;23.90;18.88;;;17.80;99.90;;;;;;5113345;28;20023;-67
2023/09/17 09:35:25;;;;;;;24.63;18.45;;;17.80;99.90;;;;;;5112993;28;20034;-67
2023/09/17 09:37:53;;;;;;;27.40;20.85;;;17.90;99.90;;;;;;5114488;28;20026;-67
2023/09/17 09:40:19;;;;;;;24.23;18.13;;;17.90;99.90;;;;;;5115456;28;20138;-66
2023/09/17 09:42:46;;;;;;;25.20;19.90;;;18.00;99.90;;;;;;5116032;28;20023;-67
2023/09/17 09:45:16;;;;;;;24.67;18.25;;;18.10;99.90;;;;;;5078904;28;20031;-66
2023/09/17 09:47:49;;;;;;;22.40;17.40;;;18.20;99.90;;;;;;5074952;28;20468;-68
2023/09/17 09:50:25;;;;;;;21.55;16.30;;;18.20;99.90;;;;;;5075330;28;20087;-67
2023/09/17 09:52:52;;;;;;;22.05;17.27;;;18.20;99.90;;;;;;5075237;28;20457;-67
2023/09/17 09:55:22;;;;;;;22.13;18.02;;;18.30;99.90;;;;;;5076540;28;20025;-66
2023/09/17 09:57:48;;;;;;;24.58;18.83;;;18.30;99.90;;;;;;5094397;28;20116;-66
2023/09/17 10:00:20;;;;;;;21.48;16.35;;;18.40;99.90;;;;;;5095023;28;20110;-66
2023/09/17 10:02:46;;;;;;;;;;;18.40;99.90;;;;;;5112018;28;20092;-66
2023/09/17 10:05:18;;;;;;;22.40;16.80;;;18.40;99.90;;;;;;5096589;28;19932;-66
2023/09/17 10:07:47;;;;;;;22.77;16.30;;;18.30;99.90;;;;;;5099626;28;20028;-66
2023/09/17 10:10:14;;;;;;;21.95;15.50;;;18.30;99.90;;;;;;5115235;28;20076;-68
2023/09/17 10:12:39;;;;;;;20.83;14.95;;;18.30;99.90;;;;;;5115642;28;20035;-68
2023/09/17 10:15:06;;;;;;;26.63;17.45;;;18.40;99.90;;;;;;5113463;28;20045;-67
2023/09/17 10:17:35;;;;;;;17.30;13.30;;;18.60;99.90;;;;;;5106208;28;20039;-67
2023/09/17 10:20:06;;;;;;;18.98;12.10;;;18.90;99.90;;;;;;5094833;28;20020;-67
2023/09/17 10:22:35;;;;;;;17.90;11.60;;;19.40;99.90;;;;;;5097558;28;20024;-67
2023/09/17 10:25:04;;;;;;;18.15;11.40;;;19.90;99.90;;;;;;5094433;28;20098;-68
2023/09/17 10:27:30;;;;;;;18.15;10.48;;;20.30;99.90;;;;;;5094321;28;20089;-67
2023/09/17 10:29:57;;;;;;;15.98;9.90;;;20.60;99.90;;;;;;5094616;28;20096;-68
2023/09/17 10:32:23;;;;;;;15.73;9.23;;;21.00;99.90;;;;;;5097766;28;20601;-68
2023/09/17 10:34:52;;;;;;;13.13;8.68;;;21.60;99.90;;;;;;5096322;28;20118;-67
2023/09/17 10:37:19;;;;;;;14.02;8.80;;;21.90;99.90;;;;;;5104690;28;20028;-69
2023/09/17 10:39:45;;;;;;;16.30;9.10;;;22.10;99.90;;;;;;5099861;28;20055;-67
2023/09/17 10:42:11;;;;;;;13.10;8.38;;;22.40;99.90;;;;;;5111129;28;20024;-68
2023/09/17 10:44:39;;;;;;;16.60;9.02;;;22.60;99.90;;;;;;5094130;28;20024;-68
2023/09/17 10:47:10;;;;;;;14.07;8.43;;;22.70;99.90;;;;;;5095285;28;20036;-68
2023/09/17 10:49:38;;;;;;;14.75;8.57;;;22.70;99.90;;;;;;5083297;28;20043;-68
2023/09/17 10:52:05;;;;;;;13.48;8.07;;;22.80;99.90;;;;;;5103741;28;20048;-68
2023/09/17 10:54:31;;;;;;;13.60;8.15;;;23.10;99.90;;;;;;5094224;28;20078;-68
2023/09/17 10:56:58;;;;;;;14.65;8.48;;;23.20;99.90;;;;;;5094238;28;20463;-68
2023/09/17 10:59:24;;;;;;;13.77;7.85;;;23.20;99.90;;;;;;5093358;28;20035;-68
2023/09/17 11:01:50;;;;;;;12.38;8.07;;;23.40;99.90;;;;;;5098527;28;20027;-68
2023/09/17 11:04:21;;;;;;;14.27;8.57;;;23.50;99.90;;;;;;5101047;28;20028;-68
2023/09/17 11:06:49;;;;;;;13.95;8.10;;;23.60;99.90;;;;;;5094052;28;20025;-68
2023/09/17 11:09:15;;;;;;;14.27;8.30;;;23.70;99.90;;;;;;5112819;28;20027;-68
2023/09/17 11:11:41;;;;;;;13.52;8.32;;;23.80;99.90;;;;;;5105218;28;20054;-68
2023/09/17 11:14:08;;;;;;;15.02;8.43;;;23.90;99.90;;;;;;5074807;28;20119;-69
2023/09/17 11:16:35;;;;;;;12.52;8.20;;;23.90;99.90;;;;;;5072597;28;20455;-69
2023/09/17 11:19:16;;;;;;;11.95;7.50;;;24.00;99.90;;;;;;5072383;28;20033;-68
2023/09/17 11:22:10;;;;;;;13.15;7.18;;;23.90;99.90;;;;;;5078952;28;20103;-67
2023/09/17 11:24:36;;;;;;;13.55;7.57;;;23.90;99.90;;;;;;5093585;28;20055;-67
2023/09/17 11:27:04;;;;;;;11.35;7.38;;;23.90;99.90;;;;;;5093685;28;20034;-67
2023/09/17 11:29:41;;;;;;;11.63;7.03;;;23.90;99.90;;;;;;5084604;28;20029;-68
2023/09/17 11:32:08;;;;;;;12.32;7.28;;;23.90;99.90;;;;;;5108248;28;20123;-67
2023/09/17 11:34:35;;;;;;;13.13;8.18;;;23.80;99.90;;;;;;5111588;28;20439;-67
2023/09/17 11:37:03;;;;;;;11.18;7.40;;;23.70;99.90;;;;;;5111679;28;20384;-67
2023/09/17 11:39:29;;;;;;;12.57;7.70;;;23.60;99.90;;;;;;5112244;28;20030;-68
2023/09/17 11:42:03;;;;;;;14.02;8.00;;;23.50;99.90;;;;;;5113596;28;20070;-67
2023/09/17 11:44:31;;;;;;;13.30;7.80;;;23.20;99.90;;;;;;5093600;28;20052;-67
2023/09/17 11:46:57;;;;;;;14.45;8.20;;;23.10;99.90;;;;;;5111196;28;20527;-68
2023/09/17 11:49:22;;;;;;;11.88;8.15;;;22.80;99.90;;;;;;5086165;28;20044;-68
2023/09/17 11:51:48;;;;;;;13.07;8.32;;;22.60;99.90;;;;;;5091664;28;20040;-67
2023/09/17 11:54:23;;;;;;;16.50;8.85;;;22.50;99.90;;;;;;5104214;28;20380;-70
2023/09/17 11:56:53;;;;;;;14.68;9.85;;;22.30;99.90;;;;;;5101452;28;20020;-68
2023/09/17 11:59:20;;;;;;;15.85;9.80;;;22.10;99.90;;;;;;5089387;28;20025;-68
2023/09/17 12:01:53;;;;;;;15.43;9.98;;;22.10;99.90;;;;;;5100065;28;20158;-68
2023/09/17 12:04:22;;;;;;;14.68;9.68;;;22.10;99.90;;;;;;5109149;28;20032;-67
2023/09/17 12:06:50;;;;;;;18.15;11.00;;;22.10;99.90;;;;;;5091133;28;20104;-68
2023/09/17 12:09:21;;;;;;;16.50;10.70;;;22.20;99.90;;;;;;5093468;28;20475;-67
2023/09/17 12:11:47;;;;;;;18.90;11.40;;;22.20;99.90;;;;;;5092074;28;20040;-68
2023/09/17 12:14:14;;;;;;;16.88;10.98;;;22.30;99.90;;;;;;5094344;28;20028;-68
2023/09/17 12:16:40;;;;;;;18.23;10.32;;;22.30;99.90;;;;;;5092951;28;20480;-67
2023/09/17 12:19:06;;;;;;;16.67;11.02;;;22.40;99.90;;;;;;5094057;28;20031;-68
2023/09/17 12:21:40;;;;;;;17.35;12.18;;;22.50;99.90;;;;;;5092811;28;20438;-68
2023/09/17 12:24:08;;;;;;;18.80;12.38;;;22.70;99.90;;;;;;5093220;28;20464;-67
2023/09/17 12:26:57;;;;;;;19.35;12.27;;;22.80;99.90;;;;;;5095995;28;20020;-67